X  CloseMetar Aviation Weather Data     RPLL Ninoy Aquino International

Temperature

28°C Temperature

22°C Dewpoint

70% Humidity



Wind

13 KM/H

 8 MPH

 4 M/S

 7 KTS



120°
East South
East
Current Conditions

Partly Cloudy Partly Cloudy
Pressure 1011.92 (hPa) - 29.88 (in)
Visibility 6.2 (mi) - 10 (km)
Airport
Airport-code RPLL

Location Ninoy Aquino International 20 (km)

Metar:
RPLL 241400Z 12007KT 090V150 9999 FEW025 SCT100 28/22 Q1012 NOSIG RMK A2988

Time: 03-24-2020 10:00